sensor_id;sensor_type;location;lat;lon;timestamp;temperature;humidity
851;DHT22;412;51.400;7.480;2024-03-29T00:00:00;11.10;93.40
851;DHT22;412;51.400;7.480;2024-03-29T00:02:27;11.20;93.50
851;DHT22;412;51.400;7.480;2024-03-29T00:04:52;11.00;93.30
851;DHT22;412;51.400;7.480;2024-03-29T00:07:18;10.80;93.90
851;DHT22;412;51.400;7.480;2024-03-29T00:09:44;10.90;93.60
851;DHT22;412;51.400;7.480;2024-03-29T00:12:09;11.00;93.70
851;DHT22;412;51.400;7.480;2024-03-29T00:14:35;10.90;93.70
851;DHT22;412;51.400;7.480;2024-03-29T00:17:01;10.90;93.70
851;DHT22;412;51.400;7.480;2024-03-29T00:19:29;10.80;93.80
851;DHT22;412;51.400;7.480;2024-03-29T00:21:55;10.90;93.70
851;DHT22;412;51.400;7.480;2024-03-29T00:24:21;11.00;93.70
851;DHT22;412;51.400;7.480;2024-03-29T00:26:46;10.90;93.70
851;DHT22;412;51.400;7.480;2024-03-29T00:29:12;11.00;93.90
851;DHT22;412;51.400;7.480;2024-03-29T00:31:38;11.00;93.60
851;DHT22;412;51.400;7.480;2024-03-29T00:34:04;11.00;93.40
851;DHT22;412;51.400;7.480;2024-03-29T00:36:29;10.90;93.70
851;DHT22;412;51.400;7.480;2024-03-29T00:38:55;11.00;93.60
851;DHT22;412;51.400;7.480;2024-03-29T00:41:21;11.00;93.60
851;DHT22;412;51.400;7.480;2024-03-29T00:43:46;10.90;93.80
851;DHT22;412;51.400;7.480;2024-03-29T00:46:14;10.80;93.80
851;DHT22;412;51.400;7.480;2024-03-29T00:48:40;10.80;94.10
851;DHT22;412;51.400;7.480;2024-03-29T00:51:06;10.70;94.00
851;DHT22;412;51.400;7.480;2024-03-29T00:53:32;10.70;94.10
851;DHT22;412;51.400;7.480;2024-03-29T00:55:57;10.60;94.50
851;DHT22;412;51.400;7.480;2024-03-29T00:58:23;10.60;94.40
851;DHT22;412;51.400;7.480;2024-03-29T01:00:49;10.60;94.60
851;DHT22;412;51.400;7.480;2024-03-29T01:03:14;10.70;94.30
851;DHT22;412;51.400;7.480;2024-03-29T01:05:40;10.80;94.30
851;DHT22;412;51.400;7.480;2024-03-29T01:08:06;10.70;94.00
851;DHT22;412;51.400;7.480;2024-03-29T01:10:32;10.80;94.10
851;DHT22;412;51.400;7.480;2024-03-29T01:12:57;10.90;94.10
851;DHT22;412;51.400;7.480;2024-03-29T01:15:23;11.00;93.80
851;DHT22;412;51.400;7.480;2024-03-29T01:17:49;10.90;93.50
851;DHT22;412;51.400;7.480;2024-03-29T01:20:14;10.90;94.20
851;DHT22;412;51.400;7.480;2024-03-29T01:22:40;11.00;93.70
851;DHT22;412;51.400;7.480;2024-03-29T01:25:06;11.10;93.40
851;DHT22;412;51.400;7.480;2024-03-29T01:27:34;11.10;93.10
851;DHT22;412;51.400;7.480;2024-03-29T01:30:00;11.10;93.10
851;DHT22;412;51.400;7.480;2024-03-29T01:32:25;11.10;93.30
851;DHT22;412;51.400;7.480;2024-03-29T01:34:51;11.00;93.10
851;DHT22;412;51.400;7.480;2024-03-29T01:37:17;10.90;93.40
851;DHT22;412;51.400;7.480;2024-03-29T01:39:43;11.00;93.40
851;DHT22;412;51.400;7.480;2024-03-29T01:42:08;11.10;93.10
851;DHT22;412;51.400;7.480;2024-03-29T01:44:36;11.20;92.80
851;DHT22;412;51.400;7.480;2024-03-29T01:47:02;11.30;92.60
851;DHT22;412;51.400;7.480;2024-03-29T01:49:30;11.30;92.60
851;DHT22;412;51.400;7.480;2024-03-29T01:51:55;11.40;92.50
851;DHT22;412;51.400;7.480;2024-03-29T01:54:21;11.30;92.30
851;DHT22;412;51.400;7.480;2024-03-29T01:56:48;11.20;92.70
851;DHT22;412;51.400;7.480;2024-03-29T01:59:16;11.20;92.40
851;DHT22;412;51.400;7.480;2024-03-29T02:01:42;11.10;92.40
851;DHT22;412;51.400;7.480;2024-03-29T02:04:09;11.20;92.60
851;DHT22;412;51.400;7.480;2024-03-29T02:06:36;11.00;92.20
851;DHT22;412;51.400;7.480;2024-03-29T02:09:03;11.00;92.60
851;DHT22;412;51.400;7.480;2024-03-29T02:11:29;11.10;92.60
851;DHT22;412;51.400;7.480;2024-03-29T02:13:55;11.10;92.40
851;DHT22;412;51.400;7.480;2024-03-29T02:16:21;11.20;92.40
851;DHT22;412;51.400;7.480;2024-03-29T02:18:47;11.20;92.70
851;DHT22;412;51.400;7.480;2024-03-29T02:21:12;11.30;92.30
851;DHT22;412;51.400;7.480;2024-03-29T02:23:45;11.30;91.90
851;DHT22;412;51.400;7.480;2024-03-29T02:26:12;11.40;92.30
851;DHT22;412;51.400;7.480;2024-03-29T02:28:38;11.30;92.10
851;DHT22;412;51.400;7.480;2024-03-29T02:31:04;11.20;92.20
851;DHT22;412;51.400;7.480;2024-03-29T02:33:30;11.40;92.30
851;DHT22;412;51.400;7.480;2024-03-29T02:35:56;11.30;92.20
851;DHT22;412;51.400;7.480;2024-03-29T02:38:22;11.30;92.20
851;DHT22;412;51.400;7.480;2024-03-29T02:40:48;11.10;91.90
851;DHT22;412;51.400;7.480;2024-03-29T02:43:13;11.20;92.10
851;DHT22;412;51.400;7.480;2024-03-29T02:45:39;11.30;92.20
851;DHT22;412;51.400;7.480;2024-03-29T02:48:05;11.30;92.00
851;DHT22;412;51.400;7.480;2024-03-29T02:50:31;11.40;92.20
851;DHT22;412;51.400;7.480;2024-03-29T02:52:57;11.60;92.10
851;DHT22;412;51.400;7.480;2024-03-29T02:55:23;11.70;92.40
851;DHT22;412;51.400;7.480;2024-03-29T02:57:48;11.70;92.30
851;DHT22;412;51.400;7.480;2024-03-29T03:00:14;11.80;92.20
851;DHT22;412;51.400;7.480;2024-03-29T03:02:40;11.80;92.10
851;DHT22;412;51.400;7.480;2024-03-29T03:05:07;11.80;91.60
851;DHT22;412;51.400;7.480;2024-03-29T03:07:34;11.70;91.60
851;DHT22;412;51.400;7.480;2024-03-29T03:10:18;11.50;91.60
851;DHT22;412;51.400;7.480;2024-03-29T03:13:03;11.60;91.90
851;DHT22;412;51.400;7.480;2024-03-29T03:15:29;11.50;91.90
851;DHT22;412;51.400;7.480;2024-03-29T03:17:55;11.60;92.00
851;DHT22;412;51.400;7.480;2024-03-29T03:20:21;11.70;92.50
851;DHT22;412;51.400;7.480;2024-03-29T03:22:50;11.60;93.10
851;DHT22;412;51.400;7.480;2024-03-29T03:25:16;11.60;93.80
851;DHT22;412;51.400;7.480;2024-03-29T03:27:42;11.80;94.40
851;DHT22;412;51.400;7.480;2024-03-29T03:30:08;11.90;94.30
851;DHT22;412;51.400;7.480;2024-03-29T03:32:34;12.00;94.70
851;DHT22;412;51.400;7.480;2024-03-29T03:34:59;12.10;95.10
851;DHT22;412;51.400;7.480;2024-03-29T03:37:25;12.10;94.90
851;DHT22;412;51.400;7.480;2024-03-29T03:39:51;12.10;95.00
851;DHT22;412;51.400;7.480;2024-03-29T03:42:16;12.10;95.30
851;DHT22;412;51.400;7.480;2024-03-29T03:44:42;12.20;95.20
851;DHT22;412;51.400;7.480;2024-03-29T03:47:08;12.20;95.20
851;DHT22;412;51.400;7.480;2024-03-29T03:49:34;12.30;95.20
851;DHT22;412;51.400;7.480;2024-03-29T03:51:59;12.30;95.20
851;DHT22;412;51.400;7.480;2024-03-29T03:54:25;12.30;95.30
851;DHT22;412;51.400;7.480;2024-03-29T03:56:51;12.40;95.60
851;DHT22;412;51.400;7.480;2024-03-29T03:59:16;12.40;97.50
851;DHT22;412;51.400;7.480;2024-03-29T04:01:42;12.40;98.80
851;DHT22;412;51.400;7.480;2024-03-29T04:04:08;12.40;98.60
851;DHT22;412;51.400;7.480;2024-03-29T04:06:34;12.20;97.70
851;DHT22;412;51.400;7.480;2024-03-29T04:09:00;12.30;99.20
851;DHT22;412;51.400;7.480;2024-03-29T04:11:26;12.30;99.80
851;DHT22;412;51.400;7.480;2024-03-29T04:13:52;12.30;99.00
851;DHT22;412;51.400;7.480;2024-03-29T04:16:18;12.30;98.10
851;DHT22;412;51.400;7.480;2024-03-29T04:18:44;12.30;98.40
851;DHT22;412;51.400;7.480;2024-03-29T04:21:09;12.30;97.60
851;DHT22;412;51.400;7.480;2024-03-29T04:23:36;12.30;97.60
851;DHT22;412;51.400;7.480;2024-03-29T04:26:02;12.30;97.80
851;DHT22;412;51.400;7.480;2024-03-29T04:28:28;12.30;98.00
851;DHT22;412;51.400;7.480;2024-03-29T04:30:58;12.30;98.20
851;DHT22;412;51.400;7.480;2024-03-29T04:33:25;12.10;98.70
851;DHT22;412;51.400;7.480;2024-03-29T04:36:03;12.10;98.90
851;DHT22;412;51.400;7.480;2024-03-29T04:38:30;12.00;99.90
851;DHT22;412;51.400;7.480;2024-03-29T04:40:57;12.00;99.90
851;DHT22;412;51.400;7.480;2024-03-29T04:43:27;12.00;99.90
851;DHT22;412;51.400;7.480;2024-03-29T04:46:11;12.10;99.90
851;DHT22;412;51.400;7.480;2024-03-29T04:48:37;12.00;99.90
851;DHT22;412;51.400;7.480;2024-03-29T04:51:04;12.00;99.90
851;DHT22;412;51.400;7.480;2024-03-29T04:53:30;12.00;99.90
851;DHT22;412;51.400;7.480;2024-03-29T04:55:56;12.00;99.90
851;DHT22;412;51.400;7.480;2024-03-29T04:58:23;12.10;99.90
851;DHT22;412;51.400;7.480;2024-03-29T05:00:49;12.00;99.90
851;DHT22;412;51.400;7.480;2024-03-29T05:03:17;12.00;99.90
851;DHT22;412;51.400;7.480;2024-03-29T05:05:44;12.00;99.90
851;DHT22;412;51.400;7.480;2024-03-29T05:08:10;12.00;99.90
851;DHT22;412;51.400;7.480;2024-03-29T05:10:35;12.00;99.90
851;DHT22;412;51.400;7.480;2024-03-29T05:13:01;12.00;99.90
851;DHT22;412;51.400;7.480;2024-03-29T05:15:27;12.00;99.90
851;DHT22;412;51.400;7.480;2024-03-29T05:17:53;12.00;99.90
851;DHT22;412;51.400;7.480;2024-03-29T05:20:19;11.90;99.90
851;DHT22;412;51.400;7.480;2024-03-29T05:22:45;11.90;99.90
851;DHT22;412;51.400;7.480;2024-03-29T05:25:11;11.90;99.90
851;DHT22;412;51.400;7.480;2024-03-29T05:27:36;11.90;99.90
851;DHT22;412;51.400;7.480;2024-03-29T05:30:03;11.90;99.90
851;DHT22;412;51.400;7.480;2024-03-29T05:32:29;11.80;99.90
851;DHT22;412;51.400;7.480;2024-03-29T05:34:56;11.80;99.90
851;DHT22;412;51.400;7.480;2024-03-29T05:37:22;11.80;99.90
851;DHT22;412;51.400;7.480;2024-03-29T05:39:51;11.80;99.90
851;DHT22;412;51.400;7.480;2024-03-29T05:42:25;11.80;99.90
851;DHT22;412;51.400;7.480;2024-03-29T05:44:51;11.70;99.90
851;DHT22;412;51.400;7.480;2024-03-29T05:47:17;11.70;99.90
851;DHT22;412;51.400;7.480;2024-03-29T05:49:43;11.70;99.90
851;DHT22;412;51.400;7.480;2024-03-29T05:52:08;11.70;99.90
851;DHT22;412;51.400;7.480;2024-03-29T05:54:34;11.60;99.90
851;DHT22;412;51.400;7.480;2024-03-29T05:57:00;11.60;99.90
851;DHT22;412;51.400;7.480;2024-03-29T05:59:25;11.50;99.90
851;DHT22;412;51.400;7.480;2024-03-29T06:01:51;11.40;99.90
851;DHT22;412;51.400;7.480;2024-03-29T06:04:17;11.40;99.90
851;DHT22;412;51.400;7.480;2024-03-29T06:06:45;11.40;99.90
851;DHT22;412;51.400;7.480;2024-03-29T06:09:11;11.40;99.90
851;DHT22;412;51.400;7.480;2024-03-29T06:11:37;11.40;99.90
851;DHT22;412;51.400;7.480;2024-03-29T06:14:03;11.30;99.90
851;DHT22;412;51.400;7.480;2024-03-29T06:16:29;11.30;99.90
851;DHT22;412;51.400;7.480;2024-03-29T06:19:14;10.90;99.90
851;DHT22;412;51.400;7.480;2024-03-29T06:21:40;11.00;99.90
851;DHT22;412;51.400;7.480;2024-03-29T06:24:11;11.10;99.90
851;DHT22;412;51.400;7.480;2024-03-29T06:26:41;11.20;99.90
851;DHT22;412;51.400;7.480;2024-03-29T06:29:07;11.00;99.90
851;DHT22;412;51.400;7.480;2024-03-29T06:31:36;11.10;99.90
851;DHT22;412;51.400;7.480;2024-03-29T06:34:02;11.10;99.90
851;DHT22;412;51.400;7.480;2024-03-29T06:36:28;11.20;99.90
851;DHT22;412;51.400;7.480;2024-03-29T06:38:56;11.30;99.90
851;DHT22;412;51.400;7.480;2024-03-29T06:41:22;11.30;99.90
851;DHT22;412;51.400;7.480;2024-03-29T06:43:47;11.40;99.90
851;DHT22;412;51.400;7.480;2024-03-29T06:46:14;11.20;99.90
851;DHT22;412;51.400;7.480;2024-03-29T06:48:40;11.10;99.90
851;DHT22;412;51.400;7.480;2024-03-29T06:51:06;11.10;99.90
851;DHT22;412;51.400;7.480;2024-03-29T06:53:32;11.10;99.90
851;DHT22;412;51.400;7.480;2024-03-29T06:56:00;11.20;99.90
851;DHT22;412;51.400;7.480;2024-03-29T06:58:26;11.20;99.90
851;DHT22;412;51.400;7.480;2024-03-29T07:00:52;11.10;99.90
851;DHT22;412;51.400;7.480;2024-03-29T07:03:18;10.90;99.90
851;DHT22;412;51.400;7.480;2024-03-29T07:05:45;10.80;99.90
851;DHT22;412;51.400;7.480;2024-03-29T07:08:11;10.90;99.90
851;DHT22;412;51.400;7.480;2024-03-29T07:10:37;10.90;99.90
851;DHT22;412;51.400;7.480;2024-03-29T07:13:03;10.70;99.90
851;DHT22;412;51.400;7.480;2024-03-29T07:15:29;10.70;99.90
851;DHT22;412;51.400;7.480;2024-03-29T07:17:54;10.80;99.90
851;DHT22;412;51.400;7.480;2024-03-29T07:20:21;10.70;99.90
851;DHT22;412;51.400;7.480;2024-03-29T07:22:47;10.80;99.90
851;DHT22;412;51.400;7.480;2024-03-29T07:25:12;11.00;99.90
851;DHT22;412;51.400;7.480;2024-03-29T07:27:38;11.10;99.90
851;DHT22;412;51.400;7.480;2024-03-29T07:30:05;11.10;99.90
851;DHT22;412;51.400;7.480;2024-03-29T07:32:33;11.20;99.90
851;DHT22;412;51.400;7.480;2024-03-29T07:34:59;11.30;99.90
851;DHT22;412;51.400;7.480;2024-03-29T07:37:25;11.50;99.90
851;DHT22;412;51.400;7.480;2024-03-29T07:39:51;11.50;99.90
851;DHT22;412;51.400;7.480;2024-03-29T07:42:17;11.50;99.90
851;DHT22;412;51.400;7.480;2024-03-29T07:44:43;11.50;99.90
851;DHT22;412;51.400;7.480;2024-03-29T07:47:09;11.60;99.90
851;DHT22;412;51.400;7.480;2024-03-29T07:49:34;11.70;99.90
851;DHT22;412;51.400;7.480;2024-03-29T07:52:02;11.70;99.90
851;DHT22;412;51.400;7.480;2024-03-29T07:54:31;11.80;99.90
851;DHT22;412;51.400;7.480;2024-03-29T07:56:57;11.70;99.90
851;DHT22;412;51.400;7.480;2024-03-29T07:59:23;11.80;99.90
851;DHT22;412;51.400;7.480;2024-03-29T08:01:48;11.80;99.90
851;DHT22;412;51.400;7.480;2024-03-29T08:04:14;11.80;99.90
851;DHT22;412;51.400;7.480;2024-03-29T08:06:40;11.70;99.90
851;DHT22;412;51.400;7.480;2024-03-29T08:09:06;11.70;99.90
851;DHT22;412;51.400;7.480;2024-03-29T08:11:31;11.50;99.90
851;DHT22;412;51.400;7.480;2024-03-29T08:13:57;11.60;99.90
851;DHT22;412;51.400;7.480;2024-03-29T08:16:23;11.70;99.90
851;DHT22;412;51.400;7.480;2024-03-29T08:18:49;11.80;99.90
851;DHT22;412;51.400;7.480;2024-03-29T08:21:15;11.90;99.90
851;DHT22;412;51.400;7.480;2024-03-29T08:23:41;12.00;99.90
851;DHT22;412;51.400;7.480;2024-03-29T08:26:07;12.00;99.90
851;DHT22;412;51.400;7.480;2024-03-29T08:28:33;12.00;99.90
851;DHT22;412;51.400;7.480;2024-03-29T08:31:04;12.00;99.90
851;DHT22;412;51.400;7.480;2024-03-29T08:33:31;12.10;99.90
851;DHT22;412;51.400;7.480;2024-03-29T08:35:57;12.20;99.90
851;DHT22;412;51.400;7.480;2024-03-29T08:38:23;12.20;99.90
851;DHT22;412;51.400;7.480;2024-03-29T08:40:49;12.40;99.90
851;DHT22;412;51.400;7.480;2024-03-29T08:43:15;12.30;99.90
851;DHT22;412;51.400;7.480;2024-03-29T08:45:44;12.30;99.90
851;DHT22;412;51.400;7.480;2024-03-29T08:48:10;12.20;99.90
851;DHT22;412;51.400;7.480;2024-03-29T08:50:36;12.30;99.90
851;DHT22;412;51.400;7.480;2024-03-29T08:53:03;12.50;99.90
851;DHT22;412;51.400;7.480;2024-03-29T08:55:29;12.60;99.90
851;DHT22;412;51.400;7.480;2024-03-29T08:57:59;12.40;99.90
851;DHT22;412;51.400;7.480;2024-03-29T09:00:26;12.40;99.90
851;DHT22;412;51.400;7.480;2024-03-29T09:02:52;12.40;99.90
851;DHT22;412;51.400;7.480;2024-03-29T09:05:18;12.40;99.90
851;DHT22;412;51.400;7.480;2024-03-29T09:07:44;12.40;99.90
851;DHT22;412;51.400;7.480;2024-03-29T09:10:11;12.40;99.90
851;DHT22;412;51.400;7.480;2024-03-29T09:12:37;12.40;99.90
851;DHT22;412;51.400;7.480;2024-03-29T09:15:04;12.50;99.90
851;DHT22;412;51.400;7.480;2024-03-29T09:17:34;12.60;99.90
851;DHT22;412;51.400;7.480;2024-03-29T09:20:00;12.80;99.90
851;DHT22;412;51.400;7.480;2024-03-29T09:22:26;12.80;99.90
851;DHT22;412;51.400;7.480;2024-03-29T09:24:52;12.90;99.90
851;DHT22;412;51.400;7.480;2024-03-29T09:27:18;13.10;99.90
851;DHT22;412;51.400;7.480;2024-03-29T09:29:47;13.00;99.90
851;DHT22;412;51.400;7.480;2024-03-29T09:32:14;13.00;99.90
851;DHT22;412;51.400;7.480;2024-03-29T09:34:43;13.00;99.90
851;DHT22;412;51.400;7.480;2024-03-29T09:37:09;13.10;99.90
851;DHT22;412;51.400;7.480;2024-03-29T09:39:35;13.10;99.90
851;DHT22;412;51.400;7.480;2024-03-29T09:42:03;13.10;99.90
851;DHT22;412;51.400;7.480;2024-03-29T09:44:33;13.30;99.90
851;DHT22;412;51.400;7.480;2024-03-29T09:47:03;13.40;99.90
851;DHT22;412;51.400;7.480;2024-03-29T09:49:33;13.30;99.90
851;DHT22;412;51.400;7.480;2024-03-29T09:52:00;13.30;99.90
851;DHT22;412;51.400;7.480;2024-03-29T09:54:29;13.30;99.90
851;DHT22;412;51.400;7.480;2024-03-29T09:56:55;13.00;99.90
851;DHT22;412;51.400;7.480;2024-03-29T09:59:23;13.00;99.90
851;DHT22;412;51.400;7.480;2024-03-29T10:01:50;13.20;99.90
851;DHT22;412;51.400;7.480;2024-03-29T10:04:17;13.40;99.90
851;DHT22;412;51.400;7.480;2024-03-29T10:06:46;13.40;99.90
851;DHT22;412;51.400;7.480;2024-03-29T10:09:18;13.50;99.90
851;DHT22;412;51.400;7.480;2024-03-29T10:11:44;13.70;99.90
851;DHT22;412;51.400;7.480;2024-03-29T10:14:10;14.00;99.90
851;DHT22;412;51.400;7.480;2024-03-29T10:16:36;14.10;99.90
851;DHT22;412;51.400;7.480;2024-03-29T10:19:03;14.20;99.90
851;DHT22;412;51.400;7.480;2024-03-29T10:21:28;14.00;99.90
851;DHT22;412;51.400;7.480;2024-03-29T10:23:54;14.10;99.90
851;DHT22;412;51.400;7.480;2024-03-29T10:26:23;14.00;99.90
851;DHT22;412;51.400;7.480;2024-03-29T10:28:49;13.90;99.90
851;DHT22;412;51.400;7.480;2024-03-29T10:31:15;13.90;99.90
851;DHT22;412;51.400;7.480;2024-03-29T10:33:44;14.00;99.90
851;DHT22;412;51.400;7.480;2024-03-29T10:36:10;13.90;99.90
851;DHT22;412;51.400;7.480;2024-03-29T10:38:38;14.10;99.90
851;DHT22;412;51.400;7.480;2024-03-29T10:41:04;14.00;99.90
851;DHT22;412;51.400;7.480;2024-03-29T10:43:33;14.20;99.90
851;DHT22;412;51.400;7.480;2024-03-29T10:46:03;14.40;99.90
851;DHT22;412;51.400;7.480;2024-03-29T10:48:31;14.50;99.90
851;DHT22;412;51.400;7.480;2024-03-29T10:50:58;14.50;99.90
851;DHT22;412;51.400;7.480;2024-03-29T10:53:27;14.50;99.90
851;DHT22;412;51.400;7.480;2024-03-29T10:56:00;14.50;99.90
851;DHT22;412;51.400;7.480;2024-03-29T10:58:30;14.60;99.90
851;DHT22;412;51.400;7.480;2024-03-29T11:00:59;14.60;99.90
851;DHT22;412;51.400;7.480;2024-03-29T11:03:38;14.60;99.90
851;DHT22;412;51.400;7.480;2024-03-29T11:06:05;14.70;99.90
851;DHT22;412;51.400;7.480;2024-03-29T11:08:33;14.70;99.90
851;DHT22;412;51.400;7.480;2024-03-29T11:11:04;14.80;99.90
851;DHT22;412;51.400;7.480;2024-03-29T11:13:51;14.80;99.90
851;DHT22;412;51.400;7.480;2024-03-29T11:16:18;15.00;99.90
851;DHT22;412;51.400;7.480;2024-03-29T11:18:47;15.10;99.90
851;DHT22;412;51.400;7.480;2024-03-29T11:21:17;15.00;99.90
851;DHT22;412;51.400;7.480;2024-03-29T11:23:51;15.10;99.90
851;DHT22;412;51.400;7.480;2024-03-29T11:26:18;15.00;99.90
851;DHT22;412;51.400;7.480;2024-03-29T11:28:51;15.10;99.90
851;DHT22;412;51.400;7.480;2024-03-29T11:31:17;15.00;99.90
851;DHT22;412;51.400;7.480;2024-03-29T11:36:20;15.30;99.90
851;DHT22;412;51.400;7.480;2024-03-29T11:38:51;15.40;99.90
851;DHT22;412;51.400;7.480;2024-03-29T11:41:19;15.40;99.90
851;DHT22;412;51.400;7.480;2024-03-29T11:43:47;15.40;99.90
851;DHT22;412;51.400;7.480;2024-03-29T11:46:14;15.40;99.90
851;DHT22;412;51.400;7.480;2024-03-29T11:48:41;15.30;99.90
851;DHT22;412;51.400;7.480;2024-03-29T11:51:08;15.30;99.90
851;DHT22;412;51.400;7.480;2024-03-29T11:53:35;15.20;99.90
851;DHT22;412;51.400;7.480;2024-03-29T11:56:02;15.20;99.90
851;DHT22;412;51.400;7.480;2024-03-29T11:58:30;15.30;99.90
851;DHT22;412;51.400;7.480;2024-03-29T12:00:57;15.20;99.90
851;DHT22;412;51.400;7.480;2024-03-29T12:03:30;15.10;99.90
851;DHT22;412;51.400;7.480;2024-03-29T12:05:58;15.00;99.90
851;DHT22;412;51.400;7.480;2024-03-29T12:08:28;15.10;99.90
851;DHT22;412;51.400;7.480;2024-03-29T12:10:54;15.20;99.90
851;DHT22;412;51.400;7.480;2024-03-29T12:13:20;15.20;99.90
851;DHT22;412;51.400;7.480;2024-03-29T12:15:46;15.20;99.90
851;DHT22;412;51.400;7.480;2024-03-29T12:18:11;15.30;99.90
851;DHT22;412;51.400;7.480;2024-03-29T12:20:41;15.20;99.90
851;DHT22;412;51.400;7.480;2024-03-29T12:23:09;15.40;99.90
851;DHT22;412;51.400;7.480;2024-03-29T12:25:36;15.40;99.90
851;DHT22;412;51.400;7.480;2024-03-29T12:28:03;15.50;99.90
851;DHT22;412;51.400;7.480;2024-03-29T12:30:30;15.50;99.90
851;DHT22;412;51.400;7.480;2024-03-29T12:33:06;15.40;99.90
851;DHT22;412;51.400;7.480;2024-03-29T12:35:33;15.20;99.90
851;DHT22;412;51.400;7.480;2024-03-29T12:38:00;15.20;99.90
851;DHT22;412;51.400;7.480;2024-03-29T12:40:28;15.10;99.90
851;DHT22;412;51.400;7.480;2024-03-29T12:42:56;15.10;99.90
851;DHT22;412;51.400;7.480;2024-03-29T12:45:24;15.10;99.90
851;DHT22;412;51.400;7.480;2024-03-29T12:47:50;15.10;99.90
851;DHT22;412;51.400;7.480;2024-03-29T12:50:29;15.00;99.90
851;DHT22;412;51.400;7.480;2024-03-29T12:52:57;14.90;99.90
851;DHT22;412;51.400;7.480;2024-03-29T12:55:25;14.90;99.90
851;DHT22;412;51.400;7.480;2024-03-29T12:57:54;15.00;99.90
851;DHT22;412;51.400;7.480;2024-03-29T13:00:20;15.00;99.90
851;DHT22;412;51.400;7.480;2024-03-29T13:02:46;15.10;99.90
851;DHT22;412;51.400;7.480;2024-03-29T13:05:12;15.10;99.90
851;DHT22;412;51.400;7.480;2024-03-29T13:07:37;15.10;99.90
851;DHT22;412;51.400;7.480;2024-03-29T13:10:04;15.10;99.90
851;DHT22;412;51.400;7.480;2024-03-29T13:12:43;15.20;99.90
851;DHT22;412;51.400;7.480;2024-03-29T13:15:27;15.10;99.90
851;DHT22;412;51.400;7.480;2024-03-29T13:17:55;15.10;99.90
851;DHT22;412;51.400;7.480;2024-03-29T13:20:23;14.90;99.90
851;DHT22;412;51.400;7.480;2024-03-29T13:22:50;14.90;99.90
851;DHT22;412;51.400;7.480;2024-03-29T13:25:17;14.80;99.90
851;DHT22;412;51.400;7.480;2024-03-29T13:27:44;14.80;99.90
851;DHT22;412;51.400;7.480;2024-03-29T13:30:12;14.80;99.90
851;DHT22;412;51.400;7.480;2024-03-29T13:32:41;14.70;99.90
851;DHT22;412;51.400;7.480;2024-03-29T13:35:08;14.70;99.90
851;DHT22;412;51.400;7.480;2024-03-29T13:37:44;14.60;99.90
851;DHT22;412;51.400;7.480;2024-03-29T13:40:14;14.70;99.90
851;DHT22;412;51.400;7.480;2024-03-29T13:42:40;14.70;99.90
851;DHT22;412;51.400;7.480;2024-03-29T13:45:07;14.60;99.90
851;DHT22;412;51.400;7.480;2024-03-29T13:47:39;14.70;99.90
851;DHT22;412;51.400;7.480;2024-03-29T13:50:06;14.80;99.90
851;DHT22;412;51.400;7.480;2024-03-29T13:52:32;14.90;99.90
851;DHT22;412;51.400;7.480;2024-03-29T13:54:59;15.00;99.90
851;DHT22;412;51.400;7.480;2024-03-29T13:57:25;15.00;99.90
851;DHT22;412;51.400;7.480;2024-03-29T13:59:52;15.00;99.90
851;DHT22;412;51.400;7.480;2024-03-29T14:02:19;15.10;99.90
851;DHT22;412;51.400;7.480;2024-03-29T14:04:45;15.20;99.90
851;DHT22;412;51.400;7.480;2024-03-29T14:07:14;15.30;99.90
851;DHT22;412;51.400;7.480;2024-03-29T14:09:41;15.40;99.90
851;DHT22;412;51.400;7.480;2024-03-29T14:12:08;15.30;99.90
851;DHT22;412;51.400;7.480;2024-03-29T14:14:33;15.20;99.90
851;DHT22;412;51.400;7.480;2024-03-29T14:17:00;15.20;99.90
851;DHT22;412;51.400;7.480;2024-03-29T14:19:30;15.20;99.90
851;DHT22;412;51.400;7.480;2024-03-29T14:21:57;15.20;99.90
851;DHT22;412;51.400;7.480;2024-03-29T14:24:23;15.10;99.90
851;DHT22;412;51.400;7.480;2024-03-29T14:26:51;15.10;99.90
851;DHT22;412;51.400;7.480;2024-03-29T14:29:17;15.20;99.90
851;DHT22;412;51.400;7.480;2024-03-29T14:31:47;15.20;99.90
851;DHT22;412;51.400;7.480;2024-03-29T14:34:13;15.30;99.90
851;DHT22;412;51.400;7.480;2024-03-29T14:36:38;15.30;99.90
851;DHT22;412;51.400;7.480;2024-03-29T14:39:04;15.30;99.90
851;DHT22;412;51.400;7.480;2024-03-29T14:41:36;15.00;99.90
851;DHT22;412;51.400;7.480;2024-03-29T14:44:06;15.10;99.90
851;DHT22;412;51.400;7.480;2024-03-29T14:46:33;15.10;99.90
851;DHT22;412;51.400;7.480;2024-03-29T14:48:59;15.20;99.90
851;DHT22;412;51.400;7.480;2024-03-29T14:51:26;15.30;99.90
851;DHT22;412;51.400;7.480;2024-03-29T14:53:53;15.30;99.90
851;DHT22;412;51.400;7.480;2024-03-29T14:56:19;15.40;99.90
851;DHT22;412;51.400;7.480;2024-03-29T14:58:45;15.40;99.90
851;DHT22;412;51.400;7.480;2024-03-29T15:01:14;15.20;99.90
851;DHT22;412;51.400;7.480;2024-03-29T15:03:40;15.30;99.90
851;DHT22;412;51.400;7.480;2024-03-29T15:06:06;15.30;99.90
851;DHT22;412;51.400;7.480;2024-03-29T15:08:32;15.40;99.90
851;DHT22;412;51.400;7.480;2024-03-29T15:11:01;15.40;99.90
851;DHT22;412;51.400;7.480;2024-03-29T15:13:27;15.40;99.90
851;DHT22;412;51.400;7.480;2024-03-29T15:15:58;15.10;99.90
851;DHT22;412;51.400;7.480;2024-03-29T15:18:24;15.10;99.90
851;DHT22;412;51.400;7.480;2024-03-29T15:21:00;15.00;99.90
851;DHT22;412;51.400;7.480;2024-03-29T15:23:26;15.10;99.90
851;DHT22;412;51.400;7.480;2024-03-29T15:25:54;15.10;99.90
851;DHT22;412;51.400;7.480;2024-03-29T15:28:21;15.10;99.90
851;DHT22;412;51.400;7.480;2024-03-29T15:31:09;15.20;99.90
851;DHT22;412;51.400;7.480;2024-03-29T15:33:37;15.10;99.90
851;DHT22;412;51.400;7.480;2024-03-29T15:36:03;15.10;99.90
851;DHT22;412;51.400;7.480;2024-03-29T15:38:28;15.10;99.90
851;DHT22;412;51.400;7.480;2024-03-29T15:40:59;15.10;99.90
851;DHT22;412;51.400;7.480;2024-03-29T15:43:29;15.00;99.90
851;DHT22;412;51.400;7.480;2024-03-29T15:45:55;15.00;99.90
851;DHT22;412;51.400;7.480;2024-03-29T15:48:22;15.10;99.90
851;DHT22;412;51.400;7.480;2024-03-29T15:50:48;15.10;99.90
851;DHT22;412;51.400;7.480;2024-03-29T15:53:13;15.00;99.90
851;DHT22;412;51.400;7.480;2024-03-29T15:55:39;15.00;99.90
851;DHT22;412;51.400;7.480;2024-03-29T15:58:05;14.90;99.90
851;DHT22;412;51.400;7.480;2024-03-29T16:00:31;14.90;99.90
851;DHT22;412;51.400;7.480;2024-03-29T16:02:57;14.90;99.90
851;DHT22;412;51.400;7.480;2024-03-29T16:05:23;15.00;99.90
851;DHT22;412;51.400;7.480;2024-03-29T16:07:49;15.10;99.90
851;DHT22;412;51.400;7.480;2024-03-29T16:10:15;15.10;99.90
851;DHT22;412;51.400;7.480;2024-03-29T16:12:41;14.80;99.90
851;DHT22;412;51.400;7.480;2024-03-29T16:15:07;14.70;99.90
851;DHT22;412;51.400;7.480;2024-03-29T16:17:34;14.80;99.90
851;DHT22;412;51.400;7.480;2024-03-29T16:20:00;14.80;99.90
851;DHT22;412;51.400;7.480;2024-03-29T16:22:26;14.90;99.90
851;DHT22;412;51.400;7.480;2024-03-29T16:24:52;14.80;99.90
851;DHT22;412;51.400;7.480;2024-03-29T16:27:18;14.90;99.90
851;DHT22;412;51.400;7.480;2024-03-29T16:29:43;14.80;99.90
851;DHT22;412;51.400;7.480;2024-03-29T16:32:09;14.80;99.90
851;DHT22;412;51.400;7.480;2024-03-29T16:34:37;14.70;99.90